Airfield :
LOGIN :

Register | Disclaimer

   EN    FR    IT 

 










Legend :    VFR   Marginal VFR   IFR   Intensive IFR   Very Intensive IFR
Visi :
Ceiling :
>= 8 km
>= 3000ft
5 to 8 km
1000 to 3000 ft
1500m to 5 km
500 to 1000 ft
800 to 1500m
200 to 500 ft
< 800m
< 200 ft
Symbols :   Thunderstorms  Fog  Heavy snow  Heavy precipitations  Wind > 20 kt
SIGMETs :     Misc.  Thunderstorms  Icing  Turbulence  Mountain Waves  Volcanic Ashes






- Airport Elevation : 289 ft


LFYR - Romorantin Pruniers

CURRENT METAR :
  • 170100Z AUTO 24005KT 200V270 7000 -DZ FEW006/// BKN011/// BKN025/// ///TCU 09/09 Q1018

EXPIRED METARs :
  • 170030Z AUTO VRB03KT 5000 -DZ BR BKN007/// BKN011/// OVC017/// ///TCU 09/09 Q1018
  • 170000Z AUTO 25005KT 220V290 9999 -DZ BKN007/// BKN013/// OVC019/// ///TCU 10/09 Q1018
  • 162330Z AUTO 25005KT 210V290 5000 -DZ BR BKN006 BKN011 OVC050 10/09 Q1018
  • 162300Z AUTO 25007KT 220V300 4800 -DZ BR BKN007 BKN012 OVC022 10/09 Q1017
  • 162230Z AUTO 26007KT 220V300 5000 -DZ BR OVC007/// ///TCU 10/09 Q1017

Expired Forecast.



MET'MAP, your aeronautical weather chart ! - Copyright ORBIFLY December 2007 - Disclaimer

ORBIFLY MET'MAP TEAM :

Programming & Development : Alexandra Zaïnal
Concept & original design : Baudouin d'Aumeries
Assistance for programming : Marc-Olivier Méhu
Technical & hardware support : Manuel Goepfert

Contact : metmap@orbifly.com




SOURCES & CREDITS :

   NOAA